sensor_id;sensor_type;location;lat;lon;timestamp;P1;P2;P0
47081;PMS5003;33066;49.296;14.470;2023-04-24T00:00:58;12;11;
47081;PMS5003;33066;49.296;14.470;2023-04-24T00:03:24;11;11;
47081;PMS5003;33066;49.296;14.470;2023-04-24T00:05:50;11;9;
47081;PMS5003;33066;49.296;14.470;2023-04-24T00:08:15;12;10;
47081;PMS5003;33066;49.296;14.470;2023-04-24T00:10:42;20;17;
47081;PMS5003;33066;49.296;14.470;2023-04-24T00:13:06;13;12;
47081;PMS5003;33066;49.296;14.470;2023-04-24T00:15:31;13;11;
47081;PMS5003;33066;49.296;14.470;2023-04-24T00:17:57;14;11;
47081;PMS5003;33066;49.296;14.470;2023-04-24T00:20:22;14;13;
47081;PMS5003;33066;49.296;14.470;2023-04-24T00:22:49;13;12;
47081;PMS5003;33066;49.296;14.470;2023-04-24T00:25:14;18;16;
47081;PMS5003;33066;49.296;14.470;2023-04-24T00:27:41;16;13;
47081;PMS5003;33066;49.296;14.470;2023-04-24T00:30:07;11;10;
47081;PMS5003;33066;49.296;14.470;2023-04-24T00:32:31;13;13;
47081;PMS5003;33066;49.296;14.470;2023-04-24T00:34:57;14;14;
47081;PMS5003;33066;49.296;14.470;2023-04-24T00:37:22;17;17;
47081;PMS5003;33066;49.296;14.470;2023-04-24T00:39:48;14;14;
47081;PMS5003;33066;49.296;14.470;2023-04-24T00:42:13;16;14;
47081;PMS5003;33066;49.296;14.470;2023-04-24T00:44:39;14;12;
47081;PMS5003;33066;49.296;14.470;2023-04-24T00:47:04;36;27;
47081;PMS5003;33066;49.296;14.470;2023-04-24T00:49:30;18;15;
47081;PMS5003;33066;49.296;14.470;2023-04-24T00:51:55;20;19;
47081;PMS5003;33066;49.296;14.470;2023-04-24T00:54:20;22;15;
47081;PMS5003;33066;49.296;14.470;2023-04-24T00:56:46;14;14;
47081;PMS5003;33066;49.296;14.470;2023-04-24T00:59:11;18;16;
47081;PMS5003;33066;49.296;14.470;2023-04-24T01:01:37;18;17;
47081;PMS5003;33066;49.296;14.470;2023-04-24T01:04:02;24;18;
47081;PMS5003;33066;49.296;14.470;2023-04-24T01:06:28;19;16;
47081;PMS5003;33066;49.296;14.470;2023-04-24T01:08:55;23;15;
47081;PMS5003;33066;49.296;14.470;2023-04-24T01:11:20;19;18;
47081;PMS5003;33066;49.296;14.470;2023-04-24T01:13:45;14;14;
47081;PMS5003;33066;49.296;14.470;2023-04-24T01:16:10;11;10;
47081;PMS5003;33066;49.296;14.470;2023-04-24T01:18:35;12;10;
47081;PMS5003;33066;49.296;14.470;2023-04-24T01:21:02;15;9;
47081;PMS5003;33066;49.296;14.470;2023-04-24T01:23:27;12;10;
47081;PMS5003;33066;49.296;14.470;2023-04-24T01:25:52;16;12;
47081;PMS5003;33066;49.296;14.470;2023-04-24T01:28:17;12;10;
47081;PMS5003;33066;49.296;14.470;2023-04-24T01:30:43;12;11;
47081;PMS5003;33066;49.296;14.470;2023-04-24T01:33:09;9;9;
47081;PMS5003;33066;49.296;14.470;2023-04-24T01:35:35;10;6;
47081;PMS5003;33066;49.296;14.470;2023-04-24T01:38:00;10;8;
47081;PMS5003;33066;49.296;14.470;2023-04-24T01:40:25;15;11;
47081;PMS5003;33066;49.296;14.470;2023-04-24T01:42:51;17;11;
47081;PMS5003;33066;49.296;14.470;2023-04-24T01:45:18;12;11;
47081;PMS5003;33066;49.296;14.470;2023-04-24T01:47:42;11;10;
47081;PMS5003;33066;49.296;14.470;2023-04-24T01:50:08;16;12;
47081;PMS5003;33066;49.296;14.470;2023-04-24T01:52:35;16;16;
47081;PMS5003;33066;49.296;14.470;2023-04-24T01:54:59;13;11;
47081;PMS5003;33066;49.296;14.470;2023-04-24T01:57:23;11;11;
47081;PMS5003;33066;49.296;14.470;2023-04-24T01:59:49;22;17;
47081;PMS5003;33066;49.296;14.470;2023-04-24T02:02:14;20;17;
47081;PMS5003;33066;49.296;14.470;2023-04-24T02:04:40;24;20;
47081;PMS5003;33066;49.296;14.470;2023-04-24T02:07:06;22;21;
47081;PMS5003;33066;49.296;14.470;2023-04-24T02:09:31;19;18;
47081;PMS5003;33066;49.296;14.470;2023-04-24T02:11:58;20;19;
47081;PMS5003;33066;49.296;14.470;2023-04-24T02:14:23;22;19;
47081;PMS5003;33066;49.296;14.470;2023-04-24T02:16:48;17;13;
47081;PMS5003;33066;49.296;14.470;2023-04-24T02:19:15;17;13;
47081;PMS5003;33066;49.296;14.470;2023-04-24T02:21:39;20;19;
47081;PMS5003;33066;49.296;14.470;2023-04-24T02:24:05;13;12;
47081;PMS5003;33066;49.296;14.470;2023-04-24T02:26:30;11;11;
47081;PMS5003;33066;49.296;14.470;2023-04-24T02:28:55;16;13;
47081;PMS5003;33066;49.296;14.470;2023-04-24T02:31:21;15;15;
47081;PMS5003;33066;49.296;14.470;2023-04-24T02:33:46;21;18;
47081;PMS5003;33066;49.296;14.470;2023-04-24T02:36:11;23;17;
47081;PMS5003;33066;49.296;14.470;2023-04-24T02:38:36;13;12;
47081;PMS5003;33066;49.296;14.470;2023-04-24T02:41:02;18;15;
47081;PMS5003;33066;49.296;14.470;2023-04-24T02:43:28;14;11;
47081;PMS5003;33066;49.296;14.470;2023-04-24T02:45:53;18;13;
47081;PMS5003;33066;49.296;14.470;2023-04-24T02:48:19;17;14;
47081;PMS5003;33066;49.296;14.470;2023-04-24T02:50:44;33;29;
47081;PMS5003;33066;49.296;14.470;2023-04-24T02:53:11;36;32;
47081;PMS5003;33066;49.296;14.470;2023-04-24T02:55:36;37;32;
47081;PMS5003;33066;49.296;14.470;2023-04-24T02:58:01;25;19;
47081;PMS5003;33066;49.296;14.470;2023-04-24T03:00:27;19;16;
47081;PMS5003;33066;49.296;14.470;2023-04-24T03:02:52;17;16;
47081;PMS5003;33066;49.296;14.470;2023-04-24T03:05:17;13;11;
47081;PMS5003;33066;49.296;14.470;2023-04-24T03:07:43;18;10;
47081;PMS5003;33066;49.296;14.470;2023-04-24T03:13:00;22;21;
47081;PMS5003;33066;49.296;14.470;2023-04-24T03:15:26;12;10;
47081;PMS5003;33066;49.296;14.470;2023-04-24T03:17:52;16;15;
47081;PMS5003;33066;49.296;14.470;2023-04-24T03:20:18;15;15;
47081;PMS5003;33066;49.296;14.470;2023-04-24T03:22:43;23;20;
47081;PMS5003;33066;49.296;14.470;2023-04-24T03:25:09;21;18;
47081;PMS5003;33066;49.296;14.470;2023-04-24T03:27:34;16;14;
47081;PMS5003;33066;49.296;14.470;2023-04-24T03:30:00;17;17;
47081;PMS5003;33066;49.296;14.470;2023-04-24T03:32:25;20;17;
47081;PMS5003;33066;49.296;14.470;2023-04-24T03:34:51;17;13;
47081;PMS5003;33066;49.296;14.470;2023-04-24T03:37:16;17;16;
47081;PMS5003;33066;49.296;14.470;2023-04-24T03:39:41;18;17;
47081;PMS5003;33066;49.296;14.470;2023-04-24T03:42:07;16;14;
47081;PMS5003;33066;49.296;14.470;2023-04-24T03:44:33;21;15;
47081;PMS5003;33066;49.296;14.470;2023-04-24T03:47:00;17;11;
47081;PMS5003;33066;49.296;14.470;2023-04-24T03:49:24;16;10;
47081;PMS5003;33066;49.296;14.470;2023-04-24T03:51:50;35;29;
47081;PMS5003;33066;49.296;14.470;2023-04-24T03:54:15;31;28;
47081;PMS5003;33066;49.296;14.470;2023-04-24T03:56:41;38;29;
47081;PMS5003;33066;49.296;14.470;2023-04-24T03:59:06;21;19;
47081;PMS5003;33066;49.296;14.470;2023-04-24T04:01:31;19;18;
47081;PMS5003;33066;49.296;14.470;2023-04-24T04:03:58;18;15;
47081;PMS5003;33066;49.296;14.470;2023-04-24T04:06:22;23;17;
47081;PMS5003;33066;49.296;14.470;2023-04-24T04:08:48;21;17;
47081;PMS5003;33066;49.296;14.470;2023-04-24T04:11:13;29;25;
47081;PMS5003;33066;49.296;14.470;2023-04-24T04:13:38;21;17;
47081;PMS5003;33066;49.296;14.470;2023-04-24T04:16:04;23;20;
47081;PMS5003;33066;49.296;14.470;2023-04-24T04:18:29;17;15;
47081;PMS5003;33066;49.296;14.470;2023-04-24T04:20:55;19;18;
47081;PMS5003;33066;49.296;14.470;2023-04-24T04:23:21;13;9;
47081;PMS5003;33066;49.296;14.470;2023-04-24T04:25:47;15;14;
47081;PMS5003;33066;49.296;14.470;2023-04-24T04:28:12;15;12;
47081;PMS5003;33066;49.296;14.470;2023-04-24T04:30:38;11;11;
47081;PMS5003;33066;49.296;14.470;2023-04-24T04:33:04;10;10;
47081;PMS5003;33066;49.296;14.470;2023-04-24T04:35:29;22;18;
47081;PMS5003;33066;49.296;14.470;2023-04-24T04:37:55;19;19;
47081;PMS5003;33066;49.296;14.470;2023-04-24T04:40:20;16;10;
47081;PMS5003;33066;49.296;14.470;2023-04-24T04:42:46;15;15;
47081;PMS5003;33066;49.296;14.470;2023-04-24T04:45:12;10;10;
47081;PMS5003;33066;49.296;14.470;2023-04-24T04:47:38;11;9;
47081;PMS5003;33066;49.296;14.470;2023-04-24T04:50:03;12;10;
47081;PMS5003;33066;49.296;14.470;2023-04-24T04:52:29;20;16;
47081;PMS5003;33066;49.296;14.470;2023-04-24T04:54:54;11;9;
47081;PMS5003;33066;49.296;14.470;2023-04-24T04:57:19;9;8;
47081;PMS5003;33066;49.296;14.470;2023-04-24T04:59:44;8;7;
47081;PMS5003;33066;49.296;14.470;2023-04-24T05:02:11;8;8;
47081;PMS5003;33066;49.296;14.470;2023-04-24T05:04:35;9;8;
47081;PMS5003;33066;49.296;14.470;2023-04-24T05:07:00;5;5;
47081;PMS5003;33066;49.296;14.470;2023-04-24T05:09:25;10;8;
47081;PMS5003;33066;49.296;14.470;2023-04-24T05:11:50;9;8;
47081;PMS5003;33066;49.296;14.470;2023-04-24T05:14:16;10;9;
47081;PMS5003;33066;49.296;14.470;2023-04-24T05:16:42;9;9;
47081;PMS5003;33066;49.296;14.470;2023-04-24T05:19:06;16;13;
47081;PMS5003;33066;49.296;14.470;2023-04-24T05:21:32;11;10;
47081;PMS5003;33066;49.296;14.470;2023-04-24T05:23:57;11;10;
47081;PMS5003;33066;49.296;14.470;2023-04-24T05:26:22;17;12;
47081;PMS5003;33066;49.296;14.470;2023-04-24T05:28:47;19;18;
47081;PMS5003;33066;49.296;14.470;2023-04-24T05:31:13;9;8;
47081;PMS5003;33066;49.296;14.470;2023-04-24T05:33:39;11;10;
47081;PMS5003;33066;49.296;14.470;2023-04-24T05:36:05;19;16;
47081;PMS5003;33066;49.296;14.470;2023-04-24T05:38:30;22;19;
47081;PMS5003;33066;49.296;14.470;2023-04-24T05:40:56;48;43;
47081;PMS5003;33066;49.296;14.470;2023-04-24T05:43:21;50;32;
47081;PMS5003;33066;49.296;14.470;2023-04-24T05:45:47;31;29;
47081;PMS5003;33066;49.296;14.470;2023-04-24T05:48:12;36;31;
47081;PMS5003;33066;49.296;14.470;2023-04-24T05:50:39;28;25;
47081;PMS5003;33066;49.296;14.470;2023-04-24T05:53:03;32;26;
47081;PMS5003;33066;49.296;14.470;2023-04-24T05:55:30;26;26;
47081;PMS5003;33066;49.296;14.470;2023-04-24T05:57:54;35;30;
47081;PMS5003;33066;49.296;14.470;2023-04-24T06:00:19;23;21;
47081;PMS5003;33066;49.296;14.470;2023-04-24T06:02:45;22;21;
47081;PMS5003;33066;49.296;14.470;2023-04-24T06:05:11;32;25;
47081;PMS5003;33066;49.296;14.470;2023-04-24T06:07:36;18;18;
47081;PMS5003;33066;49.296;14.470;2023-04-24T06:10:02;17;16;
47081;PMS5003;33066;49.296;14.470;2023-04-24T06:12:27;21;20;
47081;PMS5003;33066;49.296;14.470;2023-04-24T06:14:52;29;28;
47081;PMS5003;33066;49.296;14.470;2023-04-24T06:17:18;30;26;
47081;PMS5003;33066;49.296;14.470;2023-04-24T06:19:43;23;19;
47081;PMS5003;33066;49.296;14.470;2023-04-24T06:22:08;14;13;
47081;PMS5003;33066;49.296;14.470;2023-04-24T06:24:35;19;19;
47081;PMS5003;33066;49.296;14.470;2023-04-24T06:27:00;11;10;
47081;PMS5003;33066;49.296;14.470;2023-04-24T06:29:25;10;10;
47081;PMS5003;33066;49.296;14.470;2023-04-24T06:31:51;9;7;
47081;PMS5003;33066;49.296;14.470;2023-04-24T06:34:16;10;7;
47081;PMS5003;33066;49.296;14.470;2023-04-24T06:36:41;7;7;
47081;PMS5003;33066;49.296;14.470;2023-04-24T06:39:07;6;5;
47081;PMS5003;33066;49.296;14.470;2023-04-24T06:41:32;10;5;
47081;PMS5003;33066;49.296;14.470;2023-04-24T06:43:58;11;9;
47081;PMS5003;33066;49.296;14.470;2023-04-24T06:46:23;7;6;
47081;PMS5003;33066;49.296;14.470;2023-04-24T06:48:49;7;5;
47081;PMS5003;33066;49.296;14.470;2023-04-24T06:51:14;11;8;
47081;PMS5003;33066;49.296;14.470;2023-04-24T06:53:40;5;5;
47081;PMS5003;33066;49.296;14.470;2023-04-24T06:56:05;16;16;
47081;PMS5003;33066;49.296;14.470;2023-04-24T06:58:30;15;13;
47081;PMS5003;33066;49.296;14.470;2023-04-24T07:00:55;12;12;
47081;PMS5003;33066;49.296;14.470;2023-04-24T07:03:21;12;12;
47081;PMS5003;33066;49.296;14.470;2023-04-24T07:05:47;11;11;
47081;PMS5003;33066;49.296;14.470;2023-04-24T07:08:12;11;11;
47081;PMS5003;33066;49.296;14.470;2023-04-24T07:10:37;7;7;
47081;PMS5003;33066;49.296;14.470;2023-04-24T07:13:03;12;11;
47081;PMS5003;33066;49.296;14.470;2023-04-24T07:15:28;4;4;
47081;PMS5003;33066;49.296;14.470;2023-04-24T07:17:53;8;7;
47081;PMS5003;33066;49.296;14.470;2023-04-24T07:20:19;4;4;
47081;PMS5003;33066;49.296;14.470;2023-04-24T07:22:44;6;5;
47081;PMS5003;33066;49.296;14.470;2023-04-24T07:25:10;5;5;
47081;PMS5003;33066;49.296;14.470;2023-04-24T07:27:36;7;3;
47081;PMS5003;33066;49.296;14.470;2023-04-24T07:30:00;3;2;
47081;PMS5003;33066;49.296;14.470;2023-04-24T07:32:26;2;2;
47081;PMS5003;33066;49.296;14.470;2023-04-24T07:34:50;2;2;
47081;PMS5003;33066;49.296;14.470;2023-04-24T07:37:16;4;3;
47081;PMS5003;33066;49.296;14.470;2023-04-24T07:39:41;3;3;
47081;PMS5003;33066;49.296;14.470;2023-04-24T07:42:06;5;5;
47081;PMS5003;33066;49.296;14.470;2023-04-24T07:44:31;3;3;
47081;PMS5003;33066;49.296;14.470;2023-04-24T07:46:56;2;2;
47081;PMS5003;33066;49.296;14.470;2023-04-24T07:49:22;6;5;
47081;PMS5003;33066;49.296;14.470;2023-04-24T07:51:48;4;4;
47081;PMS5003;33066;49.296;14.470;2023-04-24T07:54:13;5;5;
47081;PMS5003;33066;49.296;14.470;2023-04-24T07:56:40;5;4;
47081;PMS5003;33066;49.296;14.470;2023-04-24T07:59:03;3;3;
47081;PMS5003;33066;49.296;14.470;2023-04-24T08:01:28;2;2;
47081;PMS5003;33066;49.296;14.470;2023-04-24T08:03:53;3;2;
47081;PMS5003;33066;49.296;14.470;2023-04-24T08:06:18;7;6;
47081;PMS5003;33066;49.296;14.470;2023-04-24T08:08:44;7;6;
47081;PMS5003;33066;49.296;14.470;2023-04-24T08:11:09;7;5;
47081;PMS5003;33066;49.296;14.470;2023-04-24T08:13:34;7;4;
47081;PMS5003;33066;49.296;14.470;2023-04-24T08:15:59;5;5;
47081;PMS5003;33066;49.296;14.470;2023-04-24T08:18:24;4;4;
47081;PMS5003;33066;49.296;14.470;2023-04-24T08:20:49;4;4;
47081;PMS5003;33066;49.296;14.470;2023-04-24T08:23:15;23;18;
47081;PMS5003;33066;49.296;14.470;2023-04-24T08:25:40;18;18;
47081;PMS5003;33066;49.296;14.470;2023-04-24T08:28:06;7;6;
47081;PMS5003;33066;49.296;14.470;2023-04-24T08:30:32;9;8;
47081;PMS5003;33066;49.296;14.470;2023-04-24T08:32:57;11;9;
47081;PMS5003;33066;49.296;14.470;2023-04-24T08:35:22;6;6;
47081;PMS5003;33066;49.296;14.470;2023-04-24T08:37:47;6;5;
47081;PMS5003;33066;49.296;14.470;2023-04-24T08:40:13;3;3;
47081;PMS5003;33066;49.296;14.470;2023-04-24T08:42:39;4;4;
47081;PMS5003;33066;49.296;14.470;2023-04-24T08:45:03;5;4;
47081;PMS5003;33066;49.296;14.470;2023-04-24T08:47:30;7;4;
47081;PMS5003;33066;49.296;14.470;2023-04-24T08:49:53;3;3;
47081;PMS5003;33066;49.296;14.470;2023-04-24T08:52:18;5;5;
47081;PMS5003;33066;49.296;14.470;2023-04-24T08:54:44;5;4;
47081;PMS5003;33066;49.296;14.470;2023-04-24T08:57:09;6;4;
47081;PMS5003;33066;49.296;14.470;2023-04-24T08:59:34;3;3;
47081;PMS5003;33066;49.296;14.470;2023-04-24T09:02:00;6;5;
47081;PMS5003;33066;49.296;14.470;2023-04-24T09:04:25;6;4;
47081;PMS5003;33066;49.296;14.470;2023-04-24T09:06:51;4;4;
47081;PMS5003;33066;49.296;14.470;2023-04-24T09:09:16;6;6;
47081;PMS5003;33066;49.296;14.470;2023-04-24T09:11:41;11;11;
47081;PMS5003;33066;49.296;14.470;2023-04-24T09:14:07;7;5;
47081;PMS5003;33066;49.296;14.470;2023-04-24T09:16:32;4;4;
47081;PMS5003;33066;49.296;14.470;2023-04-24T09:18:57;8;6;
47081;PMS5003;33066;49.296;14.470;2023-04-24T09:21:22;5;5;
47081;PMS5003;33066;49.296;14.470;2023-04-24T09:26:13;8;7;
47081;PMS5003;33066;49.296;14.470;2023-04-24T09:28:40;4;4;
47081;PMS5003;33066;49.296;14.470;2023-04-24T09:31:04;7;5;
47081;PMS5003;33066;49.296;14.470;2023-04-24T09:33:28;5;5;
47081;PMS5003;33066;49.296;14.470;2023-04-24T09:35:53;6;5;
47081;PMS5003;33066;49.296;14.470;2023-04-24T09:38:19;6;5;
47081;PMS5003;33066;49.296;14.470;2023-04-24T09:40:44;6;4;
47081;PMS5003;33066;49.296;14.470;2023-04-24T09:43:10;5;5;
47081;PMS5003;33066;49.296;14.470;2023-04-24T09:45:35;5;4;
47081;PMS5003;33066;49.296;14.470;2023-04-24T09:48:00;6;5;
47081;PMS5003;33066;49.296;14.470;2023-04-24T09:50:24;7;6;
47081;PMS5003;33066;49.296;14.470;2023-04-24T09:55:16;5;5;
47081;PMS5003;33066;49.296;14.470;2023-04-24T10:00:06;5;4;
47081;PMS5003;33066;49.296;14.470;2023-04-24T10:02:30;3;3;
47081;PMS5003;33066;49.296;14.470;2023-04-24T10:04:56;4;3;
47081;PMS5003;33066;49.296;14.470;2023-04-24T10:07:21;3;3;
47081;PMS5003;33066;49.296;14.470;2023-04-24T10:09:46;5;5;
47081;PMS5003;33066;49.296;14.470;2023-04-24T10:12:11;3;3;
47081;PMS5003;33066;49.296;14.470;2023-04-24T10:14:36;10;7;
47081;PMS5003;33066;49.296;14.470;2023-04-24T10:17:02;5;5;
47081;PMS5003;33066;49.296;14.470;2023-04-24T10:19:27;6;5;
47081;PMS5003;33066;49.296;14.470;2023-04-24T10:21:54;5;4;
47081;PMS5003;33066;49.296;14.470;2023-04-24T10:24:19;6;6;
47081;PMS5003;33066;49.296;14.470;2023-04-24T10:26:43;11;5;
47081;PMS5003;33066;49.296;14.470;2023-04-24T10:29:07;3;2;
47081;PMS5003;33066;49.296;14.470;2023-04-24T10:31:33;5;5;
47081;PMS5003;33066;49.296;14.470;2023-04-24T10:33:58;4;3;
47081;PMS5003;33066;49.296;14.470;2023-04-24T10:36:23;3;2;
47081;PMS5003;33066;49.296;14.470;2023-04-24T10:38:49;3;3;
47081;PMS5003;33066;49.296;14.470;2023-04-24T10:41:16;3;3;
47081;PMS5003;33066;49.296;14.470;2023-04-24T10:43:39;3;3;
47081;PMS5003;33066;49.296;14.470;2023-04-24T10:46:05;2;2;
47081;PMS5003;33066;49.296;14.470;2023-04-24T10:48:29;4;4;
47081;PMS5003;33066;49.296;14.470;2023-04-24T10:50:55;2;2;
47081;PMS5003;33066;49.296;14.470;2023-04-24T10:53:20;4;3;
47081;PMS5003;33066;49.296;14.470;2023-04-24T10:55:45;4;4;
47081;PMS5003;33066;49.296;14.470;2023-04-24T10:58:10;4;4;
47081;PMS5003;33066;49.296;14.470;2023-04-24T11:00:37;2;2;
47081;PMS5003;33066;49.296;14.470;2023-04-24T11:03:00;2;2;
47081;PMS5003;33066;49.296;14.470;2023-04-24T11:12:41;5;3;
47081;PMS5003;33066;49.296;14.470;2023-04-24T11:15:07;2;2;
47081;PMS5003;33066;49.296;14.470;2023-04-24T11:17:32;3;3;
47081;PMS5003;33066;49.296;14.470;2023-04-24T11:20:01;1;1;
47081;PMS5003;33066;49.296;14.470;2023-04-24T11:22:22;2;2;
47081;PMS5003;33066;49.296;14.470;2023-04-24T11:24:49;2;2;
47081;PMS5003;33066;49.296;14.470;2023-04-24T11:27:12;1;1;
47081;PMS5003;33066;49.296;14.470;2023-04-24T11:29:39;2;2;
47081;PMS5003;33066;49.296;14.470;2023-04-24T11:34:28;4;4;
47081;PMS5003;33066;49.296;14.470;2023-04-24T11:36:53;3;2;
47081;PMS5003;33066;49.296;14.470;2023-04-24T11:39:17;4;3;
47081;PMS5003;33066;49.296;14.470;2023-04-24T11:41:43;3;3;
47081;PMS5003;33066;49.296;14.470;2023-04-24T11:44:08;3;3;
47081;PMS5003;33066;49.296;14.470;2023-04-24T11:46:33;3;1;
47081;PMS5003;33066;49.296;14.470;2023-04-24T11:48:58;2;2;
47081;PMS5003;33066;49.296;14.470;2023-04-24T11:51:24;1;1;
47081;PMS5003;33066;49.296;14.470;2023-04-24T11:53:48;3;3;
47081;PMS5003;33066;49.296;14.470;2023-04-24T11:56:16;1;1;
47081;PMS5003;33066;49.296;14.470;2023-04-24T11:58:38;2;2;
47081;PMS5003;33066;49.296;14.470;2023-04-24T12:01:04;2;2;
47081;PMS5003;33066;49.296;14.470;2023-04-24T12:03:29;1;1;
47081;PMS5003;33066;49.296;14.470;2023-04-24T12:10:44;0;0;
47081;PMS5003;33066;49.296;14.470;2023-04-24T12:13:09;1;1;
47081;PMS5003;33066;49.296;14.470;2023-04-24T12:15:34;1;1;
47081;PMS5003;33066;49.296;14.470;2023-04-24T12:18:00;0;0;
47081;PMS5003;33066;49.296;14.470;2023-04-24T12:20:26;0;0;
47081;PMS5003;33066;49.296;14.470;2023-04-24T12:22:50;0;0;
47081;PMS5003;33066;49.296;14.470;2023-04-24T12:25:16;0;0;
47081;PMS5003;33066;49.296;14.470;2023-04-24T12:27:40;0;0;
47081;PMS5003;33066;49.296;14.470;2023-04-24T12:30:09;1;1;
47081;PMS5003;33066;49.296;14.470;2023-04-24T12:32:31;1;1;
47081;PMS5003;33066;49.296;14.470;2023-04-24T12:34:56;1;1;
47081;PMS5003;33066;49.296;14.470;2023-04-24T12:37:22;0;0;
47081;PMS5003;33066;49.296;14.470;2023-04-24T12:42:12;0;0;
47081;PMS5003;33066;49.296;14.470;2023-04-24T12:44:37;1;1;
47081;PMS5003;33066;49.296;14.470;2023-04-24T12:47:03;1;1;
47081;PMS5003;33066;49.296;14.470;2023-04-24T12:49:27;0;0;
47081;PMS5003;33066;49.296;14.470;2023-04-24T12:51:52;2;1;
47081;PMS5003;33066;49.296;14.470;2023-04-24T12:54:17;2;1;
47081;PMS5003;33066;49.296;14.470;2023-04-24T12:56:43;3;2;
47081;PMS5003;33066;49.296;14.470;2023-04-24T12:59:08;1;0;
47081;PMS5003;33066;49.296;14.470;2023-04-24T13:01:33;1;1;
47081;PMS5003;33066;49.296;14.470;2023-04-24T13:03:58;1;1;
47081;PMS5003;33066;49.296;14.470;2023-04-24T13:06:23;1;1;
47081;PMS5003;33066;49.296;14.470;2023-04-24T13:08:49;1;1;
47081;PMS5003;33066;49.296;14.470;2023-04-24T13:11:14;1;1;
47081;PMS5003;33066;49.296;14.470;2023-04-24T13:13:39;2;2;
47081;PMS5003;33066;49.296;14.470;2023-04-24T13:16:04;2;2;
47081;PMS5003;33066;49.296;14.470;2023-04-24T13:18:30;1;1;
47081;PMS5003;33066;49.296;14.470;2023-04-24T13:20:55;1;1;
47081;PMS5003;33066;49.296;14.470;2023-04-24T13:23:20;4;4;
47081;PMS5003;33066;49.296;14.470;2023-04-24T13:25:46;2;1;
47081;PMS5003;33066;49.296;14.470;2023-04-24T13:28:11;4;4;
47081;PMS5003;33066;49.296;14.470;2023-04-24T13:30:35;4;3;
47081;PMS5003;33066;49.296;14.470;2023-04-24T13:33:00;5;4;
47081;PMS5003;33066;49.296;14.470;2023-04-24T13:35:25;3;3;
47081;PMS5003;33066;49.296;14.470;2023-04-24T13:37:51;6;5;
47081;PMS5003;33066;49.296;14.470;2023-04-24T13:40:16;1;1;
47081;PMS5003;33066;49.296;14.470;2023-04-24T13:42:42;6;4;
47081;PMS5003;33066;49.296;14.470;2023-04-24T13:45:07;4;4;
47081;PMS5003;33066;49.296;14.470;2023-04-24T13:47:32;3;2;
47081;PMS5003;33066;49.296;14.470;2023-04-24T13:49:57;2;2;
47081;PMS5003;33066;49.296;14.470;2023-04-24T13:52:22;7;4;
47081;PMS5003;33066;49.296;14.470;2023-04-24T13:54:47;2;2;
47081;PMS5003;33066;49.296;14.470;2023-04-24T13:57:13;2;2;
47081;PMS5003;33066;49.296;14.470;2023-04-24T13:59:38;2;2;
47081;PMS5003;33066;49.296;14.470;2023-04-24T14:02:04;4;3;
47081;PMS5003;33066;49.296;14.470;2023-04-24T14:04:28;3;3;
47081;PMS5003;33066;49.296;14.470;2023-04-24T14:06:53;1;1;
47081;PMS5003;33066;49.296;14.470;2023-04-24T14:09:18;3;3;
47081;PMS5003;33066;49.296;14.470;2023-04-24T14:11:44;4;4;
47081;PMS5003;33066;49.296;14.470;2023-04-24T14:14:09;3;2;
47081;PMS5003;33066;49.296;14.470;2023-04-24T14:16:35;2;2;
47081;PMS5003;33066;49.296;14.470;2023-04-24T14:18:59;1;1;
47081;PMS5003;33066;49.296;14.470;2023-04-24T14:21:25;4;3;
47081;PMS5003;33066;49.296;14.470;2023-04-24T14:23:52;4;4;
47081;PMS5003;33066;49.296;14.470;2023-04-24T14:26:16;3;3;
47081;PMS5003;33066;49.296;14.470;2023-04-24T14:28:40;2;2;
47081;PMS5003;33066;49.296;14.470;2023-04-24T14:31:06;3;3;
47081;PMS5003;33066;49.296;14.470;2023-04-24T14:33:31;4;4;
47081;PMS5003;33066;49.296;14.470;2023-04-24T14:35:56;2;2;
47081;PMS5003;33066;49.296;14.470;2023-04-24T14:38:21;4;4;
47081;PMS5003;33066;49.296;14.470;2023-04-24T14:40:46;4;3;
47081;PMS5003;33066;49.296;14.470;2023-04-24T14:43:11;4;4;
47081;PMS5003;33066;49.296;14.470;2023-04-24T14:45:36;3;3;
47081;PMS5003;33066;49.296;14.470;2023-04-24T14:48:02;3;2;
47081;PMS5003;33066;49.296;14.470;2023-04-24T14:50:26;3;3;
47081;PMS5003;33066;49.296;14.470;2023-04-24T14:52:51;5;4;
47081;PMS5003;33066;49.296;14.470;2023-04-24T14:55:17;2;2;
47081;PMS5003;33066;49.296;14.470;2023-04-24T14:57:41;3;3;
47081;PMS5003;33066;49.296;14.470;2023-04-24T15:00:07;3;3;
47081;PMS5003;33066;49.296;14.470;2023-04-24T15:02:33;4;3;
47081;PMS5003;33066;49.296;14.470;2023-04-24T15:04:56;5;5;
47081;PMS5003;33066;49.296;14.470;2023-04-24T15:07:21;3;3;
47081;PMS5003;33066;49.296;14.470;2023-04-24T15:09:47;2;2;
47081;PMS5003;33066;49.296;14.470;2023-04-24T15:12:12;3;3;
47081;PMS5003;33066;49.296;14.470;2023-04-24T15:14:37;4;4;
47081;PMS5003;33066;49.296;14.470;2023-04-24T15:17:02;5;4;
47081;PMS5003;33066;49.296;14.470;2023-04-24T15:19:28;3;3;
47081;PMS5003;33066;49.296;14.470;2023-04-24T15:21:53;2;2;
47081;PMS5003;33066;49.296;14.470;2023-04-24T15:24:20;3;3;
47081;PMS5003;33066;49.296;14.470;2023-04-24T15:26:43;3;2;
47081;PMS5003;33066;49.296;14.470;2023-04-24T15:29:08;3;3;
47081;PMS5003;33066;49.296;14.470;2023-04-24T15:31:35;5;3;
47081;PMS5003;33066;49.296;14.470;2023-04-24T15:33:58;2;2;
47081;PMS5003;33066;49.296;14.470;2023-04-24T15:36:25;2;2;
47081;PMS5003;33066;49.296;14.470;2023-04-24T15:38:49;6;5;
47081;PMS5003;33066;49.296;14.470;2023-04-24T15:41:14;5;4;
47081;PMS5003;33066;49.296;14.470;2023-04-24T15:43:39;6;6;
47081;PMS5003;33066;49.296;14.470;2023-04-24T15:46:04;3;3;
47081;PMS5003;33066;49.296;14.470;2023-04-24T15:48:29;2;2;
47081;PMS5003;33066;49.296;14.470;2023-04-24T15:50:55;5;5;
47081;PMS5003;33066;49.296;14.470;2023-04-24T15:53:20;5;5;
47081;PMS5003;33066;49.296;14.470;2023-04-24T15:55:45;3;3;
47081;PMS5003;33066;49.296;14.470;2023-04-24T15:58:10;2;2;
47081;PMS5003;33066;49.296;14.470;2023-04-24T16:00:35;5;3;
47081;PMS5003;33066;49.296;14.470;2023-04-24T16:03:01;3;3;
47081;PMS5003;33066;49.296;14.470;2023-04-24T16:05:26;2;2;
47081;PMS5003;33066;49.296;14.470;2023-04-24T16:07:52;4;4;
47081;PMS5003;33066;49.296;14.470;2023-04-24T16:10:16;4;4;
47081;PMS5003;33066;49.296;14.470;2023-04-24T16:12:41;3;3;
47081;PMS5003;33066;49.296;14.470;2023-04-24T16:15:08;2;2;
47081;PMS5003;33066;49.296;14.470;2023-04-24T16:17:32;5;5;
47081;PMS5003;33066;49.296;14.470;2023-04-24T16:19:57;2;2;
47081;PMS5003;33066;49.296;14.470;2023-04-24T16:22:22;3;3;
47081;PMS5003;33066;49.296;14.470;2023-04-24T16:24:47;2;2;
47081;PMS5003;33066;49.296;14.470;2023-04-24T16:27:13;3;3;
47081;PMS5003;33066;49.296;14.470;2023-04-24T16:29:38;6;4;
47081;PMS5003;33066;49.296;14.470;2023-04-24T16:32:03;13;10;
47081;PMS5003;33066;49.296;14.470;2023-04-24T16:34:29;2;2;